createdAt,value
2018-03-27T00:00:00.219Z,40.92
2018-03-27T00:05:39.076Z,31.87
2018-03-27T00:08:13.572Z,28.90
2018-03-27T00:10:48.093Z,25.75
2018-03-27T00:13:23.247Z,33.72
2018-03-27T00:15:58.176Z,25.95
2018-03-27T00:18:32.580Z,31.45
2018-03-27T00:21:07.295Z,37.75
2018-03-27T00:23:41.732Z,33.83
2018-03-27T00:26:16.176Z,31.40
2018-03-27T00:29:08.461Z,30.70
2018-03-27T00:32:01.045Z,26.60
2018-03-27T00:34:53.241Z,34.20
2018-03-27T00:37:45.727Z,33.30
2018-03-27T00:40:38.990Z,36.25
2018-03-27T00:43:14.376Z,27.05
2018-03-27T00:45:49.602Z,29.92
2018-03-27T00:48:24.197Z,29.10
2018-03-27T00:50:58.618Z,28.17
2018-03-27T00:53:33.003Z,36.30
2018-03-27T00:56:07.956Z,32.30
2018-03-27T00:58:42.776Z,29.12
2018-03-27T01:01:17.428Z,32.30
2018-03-27T01:03:52.354Z,24.58
2018-03-27T01:06:26.924Z,28.33
2018-03-27T01:09:01.475Z,26.50
2018-03-27T01:11:35.944Z,34.88
2018-03-27T01:14:11.375Z,33.03
2018-03-27T01:16:46.106Z,29.30
2018-03-27T01:19:20.552Z,36.22
2018-03-27T01:21:54.974Z,38.10
2018-03-27T01:24:29.489Z,33.22
2018-03-27T01:27:03.976Z,31.00
2018-03-27T01:29:38.273Z,34.45
2018-03-27T01:32:12.750Z,38.78
2018-03-27T01:34:47.152Z,34.88
2018-03-27T01:37:21.558Z,38.05
2018-03-27T01:39:56.831Z,32.20
2018-03-27T01:42:31.555Z,38.35
2018-03-27T01:45:06.446Z,32.30
2018-03-27T01:47:41.210Z,33.70
2018-03-27T01:50:15.747Z,38.05
2018-03-27T01:52:51.685Z,31.05
2018-03-27T01:55:27.243Z,31.73
2018-03-27T01:58:02.937Z,27.80
2018-03-27T02:00:38.293Z,33.08
2018-03-27T02:03:13.082Z,33.50
2018-03-27T02:05:47.597Z,34.88
2018-03-27T02:08:23.133Z,41.88
2018-03-27T02:11:03.033Z,35.72
2018-03-27T02:13:43.429Z,37.55
2018-03-27T02:16:23.837Z,37.70
2018-03-27T02:19:04.161Z,40.10
2018-03-27T02:21:37.906Z,38.53
2018-03-27T02:24:13.827Z,42.03
2018-03-27T02:26:48.357Z,40.15
2018-03-27T02:29:22.864Z,34.28
2018-03-27T02:31:58.316Z,46.17
2018-03-27T02:34:33.727Z,39.30
2018-03-27T02:37:08.015Z,43.95
2018-03-27T02:39:42.614Z,46.30
2018-03-27T02:42:17.442Z,41.28
2018-03-27T02:44:52.265Z,42.95
2018-03-27T02:47:27.474Z,46.33
2018-03-27T02:50:02.531Z,44.58
2018-03-27T02:52:37.891Z,40.97
2018-03-27T02:55:13.416Z,42.40
2018-03-27T02:57:49.080Z,40.72
2018-03-27T03:00:24.515Z,46.92
2018-03-27T03:02:58.901Z,40.03
2018-03-27T03:05:34.395Z,43.70
2018-03-27T03:08:08.907Z,43.53
2018-03-27T03:10:43.634Z,41.17
2018-03-27T03:13:19.710Z,45.50
2018-03-27T03:15:54.924Z,37.83
2018-03-27T03:18:29.330Z,43.60
2018-03-27T03:21:03.938Z,45.58
2018-03-27T03:23:39.135Z,38.50
2018-03-27T03:26:13.625Z,42.83
2018-03-27T03:28:47.960Z,43.70
2018-03-27T03:31:22.698Z,41.53
2018-03-27T03:33:57.150Z,46.08
2018-03-27T03:36:31.746Z,51.63
2018-03-27T03:39:06.126Z,43.22
2018-03-27T03:41:40.529Z,50.22
2018-03-27T03:44:14.903Z,48.55
2018-03-27T03:46:49.436Z,41.30
2018-03-27T03:49:23.801Z,49.30
2018-03-27T03:51:59.277Z,46.00
2018-03-27T03:54:33.541Z,46.53
2018-03-27T03:57:07.921Z,44.95
2018-03-27T03:59:42.854Z,44.97
2018-03-27T04:02:17.781Z,45.58
2018-03-27T04:04:52.917Z,41.05
2018-03-27T04:07:28.053Z,46.47
2018-03-27T04:10:02.458Z,48.05
2018-03-27T04:12:36.909Z,48.87
2018-03-27T04:15:12.190Z,44.05
2018-03-27T04:17:46.797Z,43.97
2018-03-27T04:20:21.354Z,46.37
2018-03-27T04:22:56.018Z,46.55
2018-03-27T04:25:31.350Z,43.15
2018-03-27T04:28:05.901Z,51.33
2018-03-27T04:30:40.406Z,52.85
2018-03-27T04:33:15.140Z,42.00
2018-03-27T04:35:49.843Z,43.28
2018-03-27T04:38:24.391Z,44.47
2018-03-27T04:40:59.746Z,52.60
2018-03-27T04:43:34.253Z,45.78
2018-03-27T04:46:09.182Z,45.08
2018-03-27T04:48:43.712Z,44.30
2018-03-27T04:51:18.234Z,41.28
2018-03-27T04:53:52.762Z,46.95
2018-03-27T04:56:27.212Z,49.60
2018-03-27T04:59:02.445Z,42.15
2018-03-27T05:01:37.680Z,49.80
2018-03-27T05:04:12.500Z,52.62
2018-03-27T05:06:47.849Z,48.33
2018-03-27T05:09:22.304Z,48.35
2018-03-27T05:11:56.809Z,55.88
2018-03-27T05:14:31.604Z,60.12
2018-03-27T05:17:06.753Z,56.83
2018-03-27T05:19:41.386Z,56.17
2018-03-27T05:22:15.994Z,64.85
2018-03-27T05:24:50.422Z,56.63
2018-03-27T05:27:24.953Z,66.00
2018-03-27T05:30:00.593Z,56.37
2018-03-27T05:32:34.977Z,54.78
2018-03-27T05:35:09.630Z,63.13
2018-03-27T05:37:45.589Z,57.38
2018-03-27T05:40:20.330Z,56.80
2018-03-27T05:42:55.685Z,58.72
2018-03-27T05:45:30.181Z,60.85
2018-03-27T05:48:04.644Z,61.97
2018-03-27T05:50:39.435Z,54.40
2018-03-27T05:53:13.885Z,58.35
2018-03-27T05:55:48.366Z,55.25
2018-03-27T05:58:22.817Z,57.00
2018-03-27T06:00:57.339Z,58.67
2018-03-27T06:03:31.842Z,54.65
2018-03-27T06:06:06.376Z,55.15
2018-03-27T06:08:41.718Z,58.38
2018-03-27T06:11:17.219Z,54.38
2018-03-27T06:13:52.701Z,47.78
2018-03-27T06:16:27.528Z,53.28
2018-03-27T06:19:02.136Z,48.33
2018-03-27T06:21:37.203Z,54.15
2018-03-27T06:24:12.489Z,51.15
2018-03-27T06:26:47.079Z,60.88
2018-03-27T06:29:22.597Z,46.95
2018-03-27T06:31:58.356Z,48.40
2018-03-27T06:34:32.769Z,45.08
2018-03-27T06:37:07.417Z,49.08
2018-03-27T06:39:41.753Z,44.55
2018-03-27T06:42:17.313Z,49.70
2018-03-27T06:44:52.690Z,45.78
2018-03-27T06:47:27.350Z,48.70
2018-03-27T06:50:02.687Z,59.22
2018-03-27T06:52:37.170Z,46.65
2018-03-27T06:55:11.521Z,53.70
2018-03-27T06:57:47.069Z,42.30
2018-03-27T07:00:21.329Z,42.45
2018-03-27T07:02:55.852Z,47.47
2018-03-27T07:05:30.262Z,40.55
2018-03-27T07:08:04.765Z,39.72
2018-03-27T07:10:39.371Z,40.97
2018-03-27T07:13:14.524Z,45.65
2018-03-27T07:15:49.062Z,41.50
2018-03-27T07:18:24.593Z,48.08
2018-03-27T07:20:59.758Z,32.97
2018-03-27T07:23:35.217Z,33.85
2018-03-27T07:26:09.910Z,36.03
2018-03-27T07:28:44.750Z,35.85
2018-03-27T07:31:19.245Z,30.88
2018-03-27T07:33:54.189Z,34.08
2018-03-27T07:36:28.608Z,40.15
2018-03-27T07:39:03.237Z,45.25
2018-03-27T07:41:38.581Z,38.15
2018-03-27T07:44:13.925Z,39.15
2018-03-27T07:46:48.359Z,34.80
2018-03-27T07:49:23.314Z,33.42
2018-03-27T07:51:57.600Z,37.03
2018-03-27T07:54:32.733Z,43.30
2018-03-27T07:57:07.363Z,37.33
2018-03-27T07:59:41.797Z,36.22
2018-03-27T08:02:16.419Z,34.08
2018-03-27T08:04:52.494Z,35.70
2018-03-27T08:07:27.065Z,40.10
2018-03-27T08:10:02.552Z,29.08
2018-03-27T08:12:37.130Z,37.95
2018-03-27T08:15:11.785Z,36.33
2018-03-27T08:17:46.248Z,36.30
2018-03-27T08:20:20.696Z,33.00
2018-03-27T08:22:55.305Z,33.90
2018-03-27T08:25:30.328Z,32.03
2018-03-27T08:28:04.796Z,34.50
2018-03-27T08:30:40.353Z,36.42
2018-03-27T08:33:14.957Z,41.88
2018-03-27T08:35:49.814Z,38.03
2018-03-27T08:38:25.122Z,31.65
2018-03-27T08:41:00.498Z,37.10
2018-03-27T08:43:36.355Z,31.20
2018-03-27T08:46:10.987Z,32.15
2018-03-27T08:48:45.694Z,31.70
2018-03-27T08:51:20.448Z,34.33
2018-03-27T08:53:54.826Z,35.40
2018-03-27T08:56:29.497Z,40.22
2018-03-27T08:59:04.127Z,31.58
2018-03-27T09:01:38.862Z,29.40
2018-03-27T09:04:13.285Z,36.00
2018-03-27T09:06:49.930Z,40.53
2018-03-27T09:09:25.361Z,37.30
2018-03-27T09:12:01.432Z,31.55
2018-03-27T09:14:35.879Z,31.27
2018-03-27T09:17:10.312Z,32.80
2018-03-27T09:19:44.684Z,29.95
2018-03-27T09:22:20.170Z,40.92
2018-03-27T09:24:54.592Z,30.40
2018-03-27T09:27:30.417Z,32.25
2018-03-27T09:30:05.273Z,33.33
2018-03-27T09:32:40.505Z,29.90
2018-03-27T09:35:15.052Z,28.35
2018-03-27T09:37:50.576Z,34.00
2018-03-27T09:40:25.044Z,27.33
2018-03-27T09:43:00.442Z,30.15
2018-03-27T09:45:34.964Z,29.05
2018-03-27T09:48:09.577Z,31.50
2018-03-27T09:50:44.133Z,27.75
2018-03-27T09:53:18.530Z,26.20
2018-03-27T09:55:53.065Z,25.92
2018-03-27T09:58:28.271Z,27.65
2018-03-27T10:01:13.228Z,27.45
2018-03-27T10:03:47.664Z,40.40
2018-03-27T10:06:22.425Z,31.45
2018-03-27T10:08:56.834Z,29.55
2018-03-27T10:11:31.236Z,25.35
2018-03-27T10:14:05.879Z,24.15
2018-03-27T10:16:40.410Z,27.05
2018-03-27T10:19:15.937Z,24.25
2018-03-27T10:21:51.911Z,23.80
2018-03-27T10:24:26.624Z,23.98
2018-03-27T10:27:01.184Z,19.20
2018-03-27T10:29:35.671Z,21.95
2018-03-27T10:32:10.063Z,30.45
2018-03-27T10:34:44.512Z,22.15
2018-03-27T10:37:19.048Z,20.05
2018-03-27T10:39:54.172Z,17.92
2018-03-27T10:42:29.264Z,14.32
2018-03-27T10:45:03.834Z,12.40
2018-03-27T10:47:39.380Z,13.75
2018-03-27T10:50:13.916Z,49.90
2018-03-27T10:52:48.453Z,11.23
2018-03-27T10:55:22.949Z,16.23
2018-03-27T10:57:57.533Z,13.50
2018-03-27T11:00:32.006Z,8.57
2018-03-27T11:03:06.439Z,15.70
2018-03-27T11:05:41.040Z,7.68
2018-03-27T11:08:15.544Z,8.68
2018-03-27T11:10:50.217Z,12.77
2018-03-27T11:13:24.608Z,15.80
2018-03-27T11:15:59.349Z,7.72
2018-03-27T11:18:33.688Z,13.30
2018-03-27T11:21:08.180Z,9.55
2018-03-27T11:23:43.142Z,10.40
2018-03-27T11:26:17.864Z,9.73
2018-03-27T11:28:52.428Z,8.45
2018-03-27T11:31:26.888Z,6.93
2018-03-27T11:34:01.182Z,6.65
2018-03-27T11:36:35.729Z,10.35
2018-03-27T11:39:10.887Z,24.55
2018-03-27T11:41:45.600Z,69.62
2018-03-27T11:44:20.020Z,16.67
2018-03-27T11:46:54.641Z,12.40
2018-03-27T11:49:29.082Z,21.65
2018-03-27T11:52:03.708Z,10.15
2018-03-27T11:54:38.739Z,10.80
2018-03-27T11:57:13.961Z,7.37
2018-03-27T11:59:48.648Z,8.07
2018-03-27T12:02:24.246Z,20.23
2018-03-27T12:04:58.668Z,14.40
2018-03-27T12:07:33.200Z,8.55
2018-03-27T12:10:07.913Z,8.27
2018-03-27T12:12:42.546Z,12.70
2018-03-27T12:15:17.590Z,5.70
2018-03-27T12:17:52.203Z,5.40
2018-03-27T12:20:26.747Z,11.27
2018-03-27T12:23:01.157Z,7.80
2018-03-27T12:25:35.689Z,5.55
2018-03-27T12:28:10.086Z,8.43
2018-03-27T12:30:45.448Z,6.80
2018-03-27T12:33:20.070Z,4.95
2018-03-27T12:35:54.465Z,7.25
2018-03-27T12:38:28.943Z,8.02
2018-03-27T12:41:03.461Z,7.07
2018-03-27T12:43:38.025Z,3.70
2018-03-27T12:46:12.476Z,5.45
2018-03-27T12:48:47.094Z,3.22
2018-03-27T12:51:21.717Z,7.20
2018-03-27T12:53:56.145Z,6.68
2018-03-27T12:56:30.665Z,3.30
2018-03-27T12:59:05.235Z,3.72
2018-03-27T13:01:39.729Z,4.35
2018-03-27T13:04:14.265Z,5.93
2018-03-27T13:06:49.585Z,5.22
2018-03-27T13:09:24.945Z,3.42
2018-03-27T13:11:59.448Z,4.35
2018-03-27T13:14:34.008Z,3.20
2018-03-27T13:17:08.465Z,4.07
2018-03-27T13:19:43.245Z,4.40
2018-03-27T13:22:17.612Z,2.80
2018-03-27T13:24:52.672Z,8.02
2018-03-27T13:27:27.278Z,3.08
2018-03-27T13:30:02.938Z,9.68
2018-03-27T13:32:38.069Z,4.70
2018-03-27T13:35:12.605Z,5.68
2018-03-27T13:37:46.929Z,7.05
2018-03-27T13:40:21.384Z,13.55
2018-03-27T13:42:56.697Z,6.70
2018-03-27T13:45:31.266Z,5.25
2018-03-27T13:48:05.814Z,5.65
2018-03-27T13:50:40.441Z,8.77
2018-03-27T13:53:14.996Z,4.62
2018-03-27T13:55:49.653Z,6.20
2018-03-27T13:58:24.128Z,4.50
2018-03-27T14:00:58.861Z,5.28
2018-03-27T14:03:33.134Z,4.60
2018-03-27T14:06:07.701Z,5.43
2018-03-27T14:08:42.219Z,6.32
2018-03-27T14:11:16.858Z,10.65
2018-03-27T14:13:51.198Z,6.62
2018-03-27T14:16:25.800Z,7.12
2018-03-27T14:19:00.401Z,7.90
2018-03-27T14:21:35.053Z,7.50
2018-03-27T14:24:09.680Z,7.75
2018-03-27T14:26:44.112Z,7.72
2018-03-27T14:29:18.498Z,6.15
2018-03-27T14:31:53.164Z,7.15
2018-03-27T14:34:27.617Z,5.20
2018-03-27T14:37:02.204Z,5.30
2018-03-27T14:39:37.482Z,6.80
2018-03-27T14:42:12.074Z,4.65
2018-03-27T14:44:47.136Z,5.57
2018-03-27T14:47:21.712Z,7.03
2018-03-27T14:49:56.026Z,6.35
2018-03-27T14:52:30.453Z,8.20
2018-03-27T14:55:04.855Z,6.03
2018-03-27T14:57:39.607Z,4.82
2018-03-27T15:00:14.885Z,5.18
2018-03-27T15:02:49.681Z,5.07
2018-03-27T15:05:24.199Z,6.60
2018-03-27T15:07:58.736Z,4.30
2018-03-27T15:10:33.326Z,5.35
2018-03-27T15:13:07.922Z,5.80
2018-03-27T15:15:42.505Z,5.35
2018-03-27T15:18:17.132Z,4.97
2018-03-27T15:20:51.693Z,8.52
2018-03-27T15:23:26.179Z,9.73
2018-03-27T15:26:00.777Z,9.73
2018-03-27T15:28:35.329Z,5.78
2018-03-27T15:31:11.201Z,4.05
2018-03-27T15:33:46.316Z,9.13
2018-03-27T15:36:20.728Z,6.47
2018-03-27T15:38:55.370Z,6.20
2018-03-27T15:41:29.853Z,4.75
2018-03-27T15:44:05.232Z,5.30
2018-03-27T15:46:39.549Z,15.00
2018-03-27T15:49:15.149Z,6.85
2018-03-27T15:51:50.433Z,8.38
2018-03-27T15:54:24.953Z,6.55
2018-03-27T15:56:59.692Z,16.75
2018-03-27T15:59:34.396Z,7.10
2018-03-27T16:02:08.829Z,4.35
2018-03-27T16:04:43.455Z,6.37
2018-03-27T16:07:18.613Z,3.12
2018-03-27T16:09:54.160Z,3.72
2018-03-27T16:12:29.388Z,7.72
2018-03-27T16:15:04.016Z,4.95
2018-03-27T16:17:38.405Z,6.10
2018-03-27T16:20:13.662Z,3.28
2018-03-27T16:22:48.260Z,6.60
2018-03-27T16:25:22.709Z,3.10
2018-03-27T16:27:57.792Z,3.50
2018-03-27T16:30:32.372Z,5.95
2018-03-27T16:33:06.777Z,10.20
2018-03-27T16:35:42.239Z,5.43
2018-03-27T16:38:16.650Z,4.53
2018-03-27T16:40:51.397Z,4.12
2018-03-27T16:43:25.917Z,7.28
2018-03-27T16:46:00.429Z,6.78
2018-03-27T16:48:35.542Z,7.55
2018-03-27T16:51:10.250Z,4.37
2018-03-27T16:53:44.661Z,3.87
2018-03-27T16:58:54.337Z,6.60
2018-03-27T17:01:29.628Z,7.90
2018-03-27T17:04:03.922Z,6.40
2018-03-27T17:06:39.099Z,5.60
2018-03-27T17:09:13.761Z,4.57
2018-03-27T17:11:48.550Z,7.05
2018-03-27T17:14:23.081Z,6.75
2018-03-27T17:16:57.580Z,5.45
2018-03-27T17:19:32.673Z,7.53
2018-03-27T17:22:07.357Z,5.30
2018-03-27T17:24:41.695Z,4.43
2018-03-27T17:27:16.396Z,5.05
2018-03-27T17:29:51.938Z,5.10
2018-03-27T17:32:26.720Z,5.12
2018-03-27T17:35:01.964Z,5.10
2018-03-27T17:37:36.657Z,4.97
2018-03-27T17:40:11.081Z,6.25
2018-03-27T17:42:47.247Z,8.80
2018-03-27T17:45:22.555Z,5.25
2018-03-27T17:47:57.302Z,4.97
2018-03-27T17:50:32.641Z,5.35
2018-03-27T17:53:07.152Z,6.03
2018-03-27T17:55:42.241Z,5.03
2018-03-27T17:58:17.429Z,6.22
2018-03-27T18:00:52.442Z,9.40
2018-03-27T18:03:27.093Z,6.28
2018-03-27T18:06:03.190Z,7.15
2018-03-27T18:08:37.773Z,9.07
2018-03-27T18:11:12.204Z,11.10
2018-03-27T18:13:47.446Z,5.70
2018-03-27T18:16:22.077Z,6.53
2018-03-27T18:18:56.923Z,9.50
2018-03-27T18:21:31.444Z,8.50
2018-03-27T18:24:06.973Z,6.62
2018-03-27T18:26:42.301Z,11.27
2018-03-27T18:29:16.930Z,8.15
2018-03-27T18:31:51.476Z,12.10
2018-03-27T18:34:26.805Z,8.07
2018-03-27T18:37:01.228Z,11.05
2018-03-27T18:39:35.861Z,9.85
2018-03-27T18:42:10.431Z,13.43
2018-03-27T18:44:45.093Z,13.52
2018-03-27T18:47:20.197Z,9.98
2018-03-27T18:49:54.676Z,10.38
2018-03-27T18:52:29.189Z,10.55
2018-03-27T18:55:03.688Z,10.75
2018-03-27T18:57:38.137Z,9.57
2018-03-27T19:00:12.650Z,8.75
2018-03-27T19:02:47.234Z,11.85
2018-03-27T19:05:21.791Z,10.60
2018-03-27T19:07:56.308Z,10.95
2018-03-27T19:10:31.862Z,9.55
2018-03-27T19:13:07.623Z,11.10
2018-03-27T19:15:42.344Z,10.30
2018-03-27T19:18:17.480Z,8.40
2018-03-27T19:20:52.237Z,11.82
2018-03-27T19:23:26.726Z,13.57
2018-03-27T19:26:01.279Z,9.70
2018-03-27T19:28:35.626Z,16.95
2018-03-27T19:31:10.308Z,13.27
2018-03-27T19:33:44.768Z,15.15
2018-03-27T19:36:19.355Z,14.63
2018-03-27T19:38:55.020Z,13.93
2018-03-27T19:41:29.558Z,9.13
2018-03-27T19:44:04.464Z,10.27
2018-03-27T19:46:39.136Z,10.00
2018-03-27T19:49:13.693Z,10.98
2018-03-27T19:51:48.169Z,11.02
2018-03-27T19:54:22.725Z,10.13
2018-03-27T19:56:58.125Z,11.40
2018-03-27T19:59:32.501Z,10.68
2018-03-27T20:02:07.657Z,12.00
2018-03-27T20:04:42.216Z,19.17
2018-03-27T20:07:17.730Z,9.23
2018-03-27T20:09:52.120Z,11.35
2018-03-27T20:12:26.573Z,17.23
2018-03-27T20:15:01.102Z,9.13
2018-03-27T20:17:36.568Z,13.40
2018-03-27T20:20:10.994Z,13.60
2018-03-27T20:22:45.598Z,15.73
2018-03-27T20:25:20.926Z,10.77
2018-03-27T20:27:55.666Z,13.73
2018-03-27T20:30:30.259Z,16.25
2018-03-27T20:33:04.906Z,12.75
2018-03-27T20:35:39.487Z,17.48
2018-03-27T20:38:13.993Z,11.65
2018-03-27T20:40:49.712Z,17.30
2018-03-27T20:43:24.396Z,17.40
2018-03-27T20:45:58.895Z,13.25
2018-03-27T20:48:33.398Z,15.23
2018-03-27T20:51:07.763Z,15.13
2018-03-27T20:53:42.530Z,15.80
2018-03-27T20:56:17.049Z,19.85
2018-03-27T20:58:51.676Z,16.05
2018-03-27T21:01:26.220Z,13.90
2018-03-27T21:04:00.730Z,13.20
2018-03-27T21:06:35.109Z,13.52
2018-03-27T21:09:09.670Z,19.12
2018-03-27T21:11:44.265Z,12.52
2018-03-27T21:14:18.917Z,16.33
2018-03-27T21:16:54.280Z,14.77
2018-03-27T21:19:28.987Z,16.58
2018-03-27T21:22:04.073Z,14.75
2018-03-27T21:24:38.766Z,14.73
2018-03-27T21:27:13.140Z,14.85
2018-03-27T21:29:47.598Z,28.42
2018-03-27T21:32:22.305Z,15.00
2018-03-27T21:34:56.946Z,15.75
2018-03-27T21:37:31.363Z,13.82
2018-03-27T21:40:05.761Z,17.45
2018-03-27T21:42:40.265Z,16.50
2018-03-27T21:45:15.040Z,14.68
2018-03-27T21:47:49.452Z,14.45
2018-03-27T21:50:23.909Z,14.13
2018-03-27T21:52:58.341Z,13.98
2018-03-27T21:55:32.938Z,14.43
2018-03-27T21:58:07.325Z,14.48
2018-03-27T22:00:41.896Z,14.57
2018-03-27T22:03:17.040Z,14.87
2018-03-27T22:05:51.512Z,15.98
2018-03-27T22:08:25.853Z,16.00
2018-03-27T22:11:01.089Z,14.85
2018-03-27T22:13:35.618Z,14.73
2018-03-27T22:16:10.048Z,12.52
2018-03-27T22:18:44.439Z,13.43
2018-03-27T22:21:19.805Z,16.02
2018-03-27T22:23:55.245Z,13.05
2018-03-27T22:26:30.894Z,15.13
2018-03-27T22:29:05.684Z,12.50
2018-03-27T22:31:40.261Z,13.10
2018-03-27T22:34:14.703Z,14.18
2018-03-27T22:36:49.626Z,11.85
2018-03-27T22:39:24.012Z,11.80
2018-03-27T22:41:58.721Z,12.48
2018-03-27T22:44:33.378Z,14.43
2018-03-27T22:47:08.105Z,12.52
2018-03-27T22:49:42.581Z,13.82
2018-03-27T22:52:17.258Z,17.67
2018-03-27T22:54:51.589Z,12.65
2018-03-27T22:57:25.997Z,11.43
2018-03-27T23:00:00.309Z,14.90
2018-03-27T23:02:34.944Z,17.83
2018-03-27T23:05:10.608Z,10.77
2018-03-27T23:07:45.134Z,11.80
2018-03-27T23:10:19.687Z,14.55
2018-03-27T23:12:54.442Z,13.35
2018-03-27T23:15:28.808Z,13.20
2018-03-27T23:18:03.517Z,11.77
2018-03-27T23:20:38.016Z,11.80
2018-03-27T23:23:13.588Z,12.20
2018-03-27T23:25:48.083Z,15.07
2018-03-27T23:28:22.624Z,12.90
2018-03-27T23:30:57.144Z,13.77
2018-03-27T23:33:31.884Z,13.62
2018-03-27T23:36:06.421Z,14.13
2018-03-27T23:38:41.133Z,14.55
2018-03-27T23:41:17.417Z,12.48
2018-03-27T23:43:52.133Z,13.90
2018-03-27T23:46:27.458Z,12.52
2018-03-27T23:49:02.548Z,11.35
2018-03-27T23:51:37.082Z,17.83
2018-03-27T23:54:11.644Z,15.02
2018-03-27T23:56:46.858Z,14.57
2018-03-27T23:59:21.929Z,12.73
